CLASSIFICATION TEAM 40km Road Race
home
    idracetypedateroutekmelevation (m)Pos.PETTORALEFamily NameNamescoregenderteamNAZIONALITACATEGORIAPOSIZIONECATTimeReal
    time
    Average
    km/hr
    RW40km Road RaceRR28/09/2018 08:00:00unic41,20100,001103AlQublanKhalid200MRWSaudiOpen Male1/2001:07:2801:07:2836,63
    RW40km Road RaceRR28/09/2018 08:00:00unic41,20100,002212OledanTotsMRWFilipinoOpen Male2/2001:07:3001:07:3036,61
    RW40km Road RaceRR28/09/2018 08:00:00unic41,20100,00334SumonodJorge199MRWFilipinoOpen Male3/2001:07:3101:07:3136,60
    RW40km Road RaceRR28/09/2018 08:00:00unic41,20100,004211AlShbeebRayanMRWSaudiOpen Male4/2001:07:3101:07:3136,60
    RW40km Road RaceRR28/09/2018 08:00:00unic41,20100,005210AlHawdaliSulaimahMRWSaudiOpen Male5/2001:07:3501:07:3536,57
    RW40km Road RaceRR28/09/2018 08:00:00unic41,20100,00659BallMartin198MRWBritishMaster Male1/701:07:3601:07:3636,56
    RW40km Road RaceRR28/09/2018 08:00:00unic41,20100,00717PinanoAlfie197MRWFilipinoOpen Male6/2001:07:3701:07:3736,55
    RW40km Road RaceRR28/09/2018 08:00:00unic41,20100,0089WaightScott196MRWNew ZealandVeteran Male1/2601:07:3701:07:3736,55
    RW40km Road RaceRR28/09/2018 08:00:00unic41,20100,00931SungaJaime195MRWFilipinoMaster Male2/701:07:3801:07:3836,54
    RW40km Road RaceRR28/09/2018 08:00:00unic41,20100,001048AlKhudhairAhmed194MRWSaudiOpen Male7/2001:07:3801:07:3836,54
    RW40km Road RaceRR28/09/2018 08:00:00unic41,20100,001140JazaeriYamen193MRWSyrianOpen Male8/2001:07:3801:07:3836,54
    RW40km Road RaceRR28/09/2018 08:00:00unic41,20100,001290KutbiMohammed192MRWSaudiOpen Male9/2001:07:3901:07:3936,53
    RW40km Road RaceRR28/09/2018 08:00:00unic41,20100,0013113GicanaRamil191MRWFilipinoVeteran Male2/2601:07:4001:07:4036,52
    RW40km Road RaceRR28/09/2018 08:00:00unic41,20100,001480ArafahAshraf190MRWSaudiOpen Male10/2001:07:4101:07:4136,52
    RW40km Road RaceRR28/09/2018 08:00:00unic41,20100,00156Dela RosaMichael189MRWFilipinoOpen Male11/2001:07:4101:07:4136,51
    RW40km Road RaceRR28/09/2018 08:00:00unic41,20100,00167SolimanPercival Jr188MRWFilipinoVeteran Male3/2601:07:4201:07:4236,51
    RW40km Road RaceRR28/09/2018 08:00:00unic41,20100,001718PoetzschPatrick187MRWGermanVeteran Male4/2601:07:4201:07:4236,50
    RW40km Road RaceRR28/09/2018 08:00:00unic41,20100,001836JohnsonDavid186MRWAmericanOpen Male12/2001:07:4501:07:4536,47
    RW40km Road RaceRR28/09/2018 08:00:00unic41,20100,001912McLeanJohn185MRWBritishVeteran Male5/2601:07:4901:07:4936,44
    RW40km Road RaceRR28/09/2018 08:00:00unic41,20100,002073DollemanRogier184MRWNetherlandsVeteran Male6/2601:07:5001:07:5036,43
    RW40km Road RaceRR28/09/2018 08:00:00unic41,20100,0021207AlHajjiAliMRWSaudiOpen Male13/2001:07:5101:07:5136,42
    RW40km Road RaceRR28/09/2018 08:00:00unic41,20100,002223CalagoErwin183MRWFilipinoVeteran Male7/2601:07:5301:07:5336,41
    RW40km Road RaceRR28/09/2018 08:00:00unic41,20100,002335AlAayedKhalid182MRWSaudiOpen Male14/2001:07:5601:07:5636,38
    RW40km Road RaceRR28/09/2018 08:00:00unic41,20100,00245von SkwarczinskyClemens181MRWGermanVeteran Male8/2601:07:5701:07:5736,37
    RW40km Road RaceRR28/09/2018 08:00:00unic41,20100,002572DercoBrandon180MRWAmericanVeteran Male9/2601:07:5701:07:5736,37
    RW40km Road RaceRR28/09/2018 08:00:00unic41,20100,0026203AlMakiFahadMRWSaudiVeteran Male10/2601:08:0101:08:0136,34
    RW40km Road RaceRR28/09/2018 08:00:00unic41,20100,00274KubaJiri179MRWGermanSenior Male1/301:08:0901:08:0936,26
    RW40km Road RaceRR28/09/2018 08:00:00unic41,20100,002819SantosMarvin178MRWFilipinoOpen Male15/2001:08:1001:08:1036,25
    RW40km Road RaceRR28/09/2018 08:00:00unic41,20100,0029202AlGhashamMohammedMRWSaudiOpen Male16/2001:09:5001:09:5035,39
    RW40km Road RaceRR28/09/2018 08:00:00unic41,20100,003026KootPaul177MRWNetherlandsOpen Male17/2001:14:1901:14:1933,25
    RW40km Road RaceRR28/09/2018 08:00:00unic41,20100,003199WhiteAndrew176MRWCanadianVeteran Male11/2601:14:2401:14:2433,22
    RW40km Road RaceRR28/09/2018 08:00:00unic41,20100,003246CaceresMarvin175MRWFilipinoVeteran Male12/2601:14:5001:14:5033,02
    RW40km Road RaceRR28/09/2018 08:00:00unic41,20100,0033209AlQahtainAbdullahMRWSaudiOpen Male18/2001:14:5201:14:5233,01
    RW40km Road RaceRR28/09/2018 08:00:00unic41,20100,003441TolentinoWilliam174MRWFilipinoMaster Male3/701:15:2101:15:2132,80
    RW40km Road RaceRR28/09/2018 08:00:00unic41,20100,0035117CordialJun173MRWFilipinoVeteran Male13/2601:15:2201:15:2232,79
    RW40km Road RaceRR28/09/2018 08:00:00unic41,20100,003637LandoEdoardo172MRWItalianSenior Male2/301:15:2401:15:2432,78
    RW40km Road RaceRR28/09/2018 08:00:00unic41,20100,003720TabbalFloren Pal171MRWFilipinoOpen Male19/2001:15:2901:15:2932,74
    RW40km Road RaceRR28/09/2018 08:00:00unic41,20100,003867DeansPhilip170MRWBritishMaster Male4/701:16:0701:16:0732,47
    RW40km Road RaceRR28/09/2018 08:00:00unic41,20100,003945PelletierJason169MRWAmericanVeteran Male14/2601:17:3201:17:3231,87
    RW40km Road RaceRR28/09/2018 08:00:00unic41,20100,004056WilliamsAnthony168MRWBritishMaster Male5/701:17:3401:17:3431,86
    RW40km Road RaceRR28/09/2018 08:00:00unic41,20100,004155Suarez FernandezAntonio167MRWSpanishVeteran Male15/2601:17:3701:17:3731,84
    RW40km Road RaceRR28/09/2018 08:00:00unic41,20100,004232OcaEdilberto166MRWFilipinoMaster Male6/701:17:4001:17:4031,82
    RW40km Road RaceRR28/09/2018 08:00:00unic41,20100,004329CabritaJose Filipe165MRWPortugueseVeteran Male16/2601:17:4301:17:4331,80
    RW40km Road RaceRR28/09/2018 08:00:00unic41,20100,0044128GicanaJun164MRWFilipinoVeteran Male17/2601:19:5901:19:5930,90
    RW40km Road RaceRR28/09/2018 08:00:00unic41,20100,004539AltavasJose Cortes163MRWFilipinoVeteran Male18/2601:20:1601:20:1630,79
    RW40km Road RaceRR28/09/2018 08:00:00unic41,20100,004675DiogoJoad162MRWPortugueseVeteran Male19/2601:21:4501:21:4530,23
    RW40km Road RaceRR28/09/2018 08:00:00unic41,20100,004769DetomalBernard161MRWFilipinoVeteran Male20/2601:24:3701:24:3729,21
    RW40km Road RaceRR28/09/2018 08:00:00unic41,20100,0048200McDermottAlistairMRWBritishVeteran Male21/2601:27:2401:27:2428,28
    RW40km Road RaceRR28/09/2018 08:00:00unic41,20100,0049100AraujoMaria200FRWItalianMaster Female1/201:29:5901:29:5927,47
    RW40km Road RaceRR28/09/2018 08:00:00unic41,20100,005024GankemaJeroen160MRWNetherlandsVeteran Male22/2601:32:4001:32:4026,67
    RW40km Road RaceRR28/09/2018 08:00:00unic41,20100,005194MahfouzTalal159MRWFrenchSenior Male3/301:37:0201:37:0225,47
    RW40km Road RaceRR28/09/2018 08:00:00unic41,20100,0052204BajaberFaisalMRWSaudiVeteran Male23/2601:38:1301:38:1325,16
    RW40km Road RaceRR28/09/2018 08:00:00unic41,20100,005342GuptaVikas158MRWIndianVeteran Male24/2601:38:2701:38:2725,10
    RW40km Road RaceRR28/09/2018 08:00:00unic41,20100,005443SatputeSanjay157MRWIndianOpen Male20/2001:43:4001:43:4023,84
    RW40km Road RaceRR28/09/2018 08:00:00unic41,20100,0055109O'ConnellNicholas156MRWNew ZealandVeteran Male25/2601:44:5401:44:5423,56
    RW40km Road RaceRR28/09/2018 08:00:00unic41,20100,005692MendozaLani199FRWFilipinoMaster Female2/201:51:2801:51:2822,17
    RW40km Road RaceRR28/09/2018 08:00:00unic41,20100,005771MendozaRichard155MRWFilipinoVeteran Male26/2601:51:2801:51:2822,17
    RW40km Road RaceRR28/09/2018 08:00:00unic41,20100,005888AbreuMarcus154MRWBrazilianMaster Male7/702:20:1602:20:1617,62
    idracetypedateroute2.389,60
    km
    5800
    dislivello
    58
    n
    BIDFamily NameNamescoregenderteamNationalityCategoryPos.Cat.TimeReal
    time
    Average
    km/hr
AlQublan KhalidOledan TotsSumonod JorgeWaight ScottSunga JaimeGicana RamilArafah AshrafDela Rosa MichaelSoliman Percival JrJohnson DavidMcLean JohnDolleman RogierCalago Erwinvon Skwarczinsky ClemensKuba JiriWhite AndrewCaceres MarvinTolentino WilliamCordial JunLando Edoardo
Tabbal Floren PalDeans PhilipSuarez Fernandez AntonioOca EdilbertoAltavas Jose CortesDetomal BernardAraujo MariaGankema JeroenMahfouz TalalGupta VikasSatpute SanjayMendoza Richard

40km Road Race Athletes TEAM (first 200)

FIND ATHLETES races saved
find results also athletes others team
Fam.Name: Name:
rem: to insert Family name (It is simply a part of word)

FIND TEAM Races saved
You can find the result of others team
TEAM: RACE: ROUTE:
rem: to insert one team (It is simply a part of word)


home